CheckWX is a tool to help pilots better visualize weather data.  It is not intended as a substitute for an official pre-flight weather briefing.

05:26:22 UTC

LYTV METAR
Tivat Airport
Tivat, Montenegro
Current

26 mins ago

LYTV 200500Z VRB01KT CAVOK 05/05 Q1020
Observed
Mar-20 @ 05:00 UTC
Wind
  • Variable at 1 KTS
Visibility
10,000+ meters
Flight Rules
VFR
Cloud Levels
  • Clear skies
Temperature
C / 41°F
Dewpoint
C / 41°F
Humidity
100%
Altimeter
30.12" Hg
Pressure
1019.92 hPa
Previous

56 mins ago

LYTV 200430Z VRB02KT CAVOK 05/04 Q1020
Observed
Mar-20 @ 04:30 UTC
Wind
  • Variable at 2 KTS
Visibility
10,000+ meters
Flight Rules
VFR
Cloud Levels
  • Clear skies
Temperature
C / 41°F
Dewpoint
C / 39°F
Humidity
93%
Altimeter
30.12" Hg
Pressure
1019.92 hPa
Previous

1 hour ago

LYTV 200400Z VRB01KT CAVOK 05/05 Q1020
Observed
Mar-20 @ 04:00 UTC
Wind
  • Variable at 1 KTS
Visibility
10,000+ meters
Flight Rules
VFR
Cloud Levels
  • Clear skies
Temperature
C / 41°F
Dewpoint
C / 41°F
Humidity
100%
Altimeter
30.12" Hg
Pressure
1019.92 hPa